Aérodrome :
LOGIN :

S'inscrire | Disclaimer

   EN    FR    IT 

 










Légende :    VFR   VFR Marginal   IFR   IFR Intensif   IFR Très Intensif
Visi : 
Plafond : 
>= 8 km
>= 3000ft
5 à 8 km
1000 à 3000 ft
1500m à 5 km
500 à 1000 ft
800 à 1500m
200 à 500 ft
< 800m
< 200 ft
Symboles :   Orages  Brouillard  Fortes neiges  Fortes précipitations  Vent > 20 kt
SIGMETs :   Divers  Orages  Givrage  Turbulence  Onde Orograph.  Cendres Volcan.







- Altitude de l'aérodrome : 17 ft
- Code IATA : GRQ


EHGG - Groningen Eelde

DERNIER METAR :
  • 210055Z AUTO 31009KT 3500 BR BKN004 OVC005 12/12 Q1008

METARs EXPIRÉS :
  • 210025Z AUTO 31009KT 3300 BR SCT004 OVC005 12/12 Q1008
  • 202355Z AUTO 31010KT 2800 BR OVC003 13/12 Q1009
  • 202325Z AUTO 31008KT 280V340 2600 BR OVC004 13/12 Q1009
  • 202255Z AUTO 31008KT 280V340 2700 BR OVC003 12/12 Q1009
  • 202225Z AUTO 32008KT 290V350 2600 BR OVC003 12/12 Q1009

TAF TAF EHGG
Valide du 21 à 00h jusqu'au 22 à 06h UTC


202311Z 2100/2206 31008KT 2000 BR OVC003
BECMG 2100/2103 OVC002
PROB40 2100/2104 1200 BCFG NSC
PROB30 2102/2106 0700 FG VV001
BECMG 2107/2110 4000 BKN004
BECMG 2110/2112 6000 NSW BKN008
PROB40 2112/2121 8000 BKN016
PROB40 2123/2206 3000 BR BKN004
Pas de NOTAMs connus pour ce terrain.



MET'MAP, la Météo Aéronautique d'un coup d'oeil ! - Copyright ORBIFLY Décembre 2007 - Disclaimer

ORBIFLY MET'MAP TEAM :

Programmation & Développement : Alexandra Zaïnal
Conception & Développement : Baudouin d'Aumeries
Co-Programmation & Développement : Marc-Olivier Méhu
Soutien technique & logistique : Manuel Goepfert

Contact : metmap@orbifly.com




SOURCES & CREDITS :

   NOAA